createdAt,value
2022-09-26T00:00:09.574Z,3.83
2022-09-26T00:02:39.481Z,3.33
2022-09-26T00:05:07.056Z,3.47
2022-09-26T00:07:33.934Z,2.97
2022-09-26T00:10:00.717Z,2.92
2022-09-26T00:12:27.826Z,2.97
2022-09-26T00:14:54.607Z,2.90
2022-09-26T00:17:21.558Z,2.50
2022-09-26T00:19:48.391Z,2.88
2022-09-26T00:22:15.380Z,3.13
2022-09-26T00:24:42.154Z,3.10
2022-09-26T00:27:10.010Z,3.00
2022-09-26T00:29:36.793Z,3.00
2022-09-26T00:32:03.711Z,2.70
2022-09-26T00:34:30.538Z,3.38
2022-09-26T00:36:58.143Z,3.15
2022-09-26T00:39:25.053Z,3.50
2022-09-26T00:41:53.470Z,3.90
2022-09-26T00:44:44.988Z,3.08
2022-09-26T00:47:33.003Z,3.53
2022-09-26T00:50:05.151Z,3.38
2022-09-26T00:52:38.254Z,2.90
2022-09-26T00:55:08.624Z,3.03
2022-09-26T00:57:42.832Z,3.05
2022-09-26T01:00:14.871Z,2.88
2022-09-26T01:02:45.506Z,2.60
2022-09-26T01:05:16.185Z,3.00
2022-09-26T01:07:43.992Z,2.88
2022-09-26T01:10:12.183Z,3.05
2022-09-26T01:12:39.234Z,2.92
2022-09-26T01:15:08.987Z,2.80
2022-09-26T01:17:39.937Z,3.40
2022-09-26T01:20:23.246Z,3.20
2022-09-26T01:23:11.939Z,3.10
2022-09-26T01:25:54.120Z,2.65
2022-09-26T01:28:54.309Z,2.67
2022-09-26T01:31:36.478Z,2.67
2022-09-26T01:34:14.311Z,3.20
2022-09-26T01:36:54.212Z,2.67
2022-09-26T01:39:41.492Z,2.47
2022-09-26T01:42:25.042Z,2.60
2022-09-26T01:45:02.881Z,2.20
2022-09-26T01:48:03.831Z,2.55
2022-09-26T01:50:49.070Z,2.33
2022-09-26T01:53:27.616Z,2.40
2022-09-26T01:56:16.480Z,2.17
2022-09-26T01:58:52.166Z,2.25
2022-09-26T02:01:23.894Z,2.60
2022-09-26T02:03:54.870Z,2.75
2022-09-26T02:06:35.115Z,2.83
2022-09-26T02:09:15.120Z,2.90
2022-09-26T02:11:48.824Z,2.60
2022-09-26T02:14:31.852Z,2.58
2022-09-26T02:17:10.718Z,2.20
2022-09-26T02:19:46.337Z,2.50
2022-09-26T02:22:15.058Z,2.70
2022-09-26T02:24:41.953Z,2.45
2022-09-26T02:27:09.501Z,2.83
2022-09-26T02:29:36.500Z,2.60
2022-09-26T02:32:12.824Z,2.45
2022-09-26T02:34:46.654Z,2.17
2022-09-26T02:37:15.880Z,2.58
2022-09-26T02:39:45.837Z,2.75
2022-09-26T02:42:31.585Z,2.42
2022-09-26T02:45:27.612Z,2.42
2022-09-26T02:48:22.794Z,2.40
2022-09-26T02:51:01.044Z,2.40
2022-09-26T02:53:46.780Z,2.20
2022-09-26T02:56:32.258Z,2.83
2022-09-26T02:59:24.922Z,2.38
2022-09-26T03:02:10.670Z,2.42
2022-09-26T03:05:01.466Z,2.63
2022-09-26T03:07:46.471Z,2.75
2022-09-26T03:10:14.795Z,2.50
2022-09-26T03:12:44.615Z,2.75
2022-09-26T03:15:13.789Z,2.70
2022-09-26T03:17:52.209Z,3.05
2022-09-26T03:20:21.726Z,2.88
2022-09-26T03:22:50.808Z,2.97
2022-09-26T03:25:24.533Z,2.85
2022-09-26T03:28:17.241Z,3.55
2022-09-26T03:30:44.439Z,2.85
2022-09-26T03:33:23.768Z,3.20
2022-09-26T03:35:50.850Z,3.03
2022-09-26T03:38:19.512Z,2.58
2022-09-26T03:40:52.743Z,2.67
2022-09-26T03:43:37.756Z,2.95
2022-09-26T03:46:08.407Z,2.05
2022-09-26T03:48:35.501Z,2.80
2022-09-26T03:51:09.354Z,2.80
2022-09-26T03:53:38.614Z,2.92
2022-09-26T03:56:11.394Z,2.58
2022-09-26T03:58:38.969Z,2.65
2022-09-26T04:01:14.577Z,2.80
2022-09-26T04:03:47.837Z,3.33
2022-09-26T04:06:20.320Z,2.90
2022-09-26T04:08:51.413Z,2.78
2022-09-26T04:11:24.547Z,3.15
2022-09-26T04:13:53.483Z,2.67
2022-09-26T04:16:24.589Z,2.70
2022-09-26T04:19:17.597Z,2.80
2022-09-26T04:21:45.160Z,2.63
2022-09-26T04:24:15.997Z,2.80
2022-09-26T04:26:45.399Z,2.97
2022-09-26T04:29:13.330Z,2.75
2022-09-26T04:31:55.843Z,3.00
2022-09-26T04:34:29.778Z,3.03
2022-09-26T04:36:57.441Z,2.60
2022-09-26T04:39:25.461Z,3.25
2022-09-26T04:41:53.276Z,2.70
2022-09-26T04:44:20.895Z,2.53
2022-09-26T04:46:48.168Z,2.60
2022-09-26T04:49:16.143Z,3.58
2022-09-26T04:51:43.133Z,2.78
2022-09-26T04:54:10.068Z,2.80
2022-09-26T04:56:39.775Z,2.53
2022-09-26T04:59:08.230Z,2.97
2022-09-26T05:01:57.740Z,2.40
2022-09-26T05:04:33.341Z,2.30
2022-09-26T05:07:00.616Z,2.40
2022-09-26T05:09:35.543Z,2.30
2022-09-26T05:12:08.017Z,2.50
2022-09-26T05:14:37.345Z,2.17
2022-09-26T05:17:04.679Z,2.42
2022-09-26T05:19:32.895Z,2.65
2022-09-26T05:22:19.973Z,2.30
2022-09-26T05:25:08.186Z,2.25
2022-09-26T05:27:36.561Z,2.28
2022-09-26T05:30:03.721Z,2.53
2022-09-26T05:32:30.628Z,2.80
2022-09-26T05:34:58.543Z,2.60
2022-09-26T05:37:28.450Z,2.33
2022-09-26T05:40:13.966Z,2.15
2022-09-26T05:42:46.351Z,2.78
2022-09-26T05:45:15.854Z,2.50
2022-09-26T05:47:43.697Z,2.47
2022-09-26T05:50:11.536Z,2.50
2022-09-26T05:52:39.860Z,2.67
2022-09-26T05:55:09.376Z,2.70
2022-09-26T05:57:58.442Z,2.55
2022-09-26T06:00:31.182Z,2.80
2022-09-26T06:02:59.649Z,2.55
2022-09-26T06:05:37.996Z,2.70
2022-09-26T06:08:12.267Z,2.40
2022-09-26T06:10:44.057Z,2.42
2022-09-26T06:13:11.192Z,2.50
2022-09-26T06:15:43.378Z,2.65
2022-09-26T06:18:10.263Z,2.88
2022-09-26T06:20:38.303Z,2.47
2022-09-26T06:23:05.743Z,2.70
2022-09-26T06:25:34.604Z,2.85
2022-09-26T06:28:03.168Z,2.65
2022-09-26T06:30:30.989Z,2.83
2022-09-26T06:33:09.571Z,2.85
2022-09-26T06:36:05.114Z,3.22
2022-09-26T06:38:37.792Z,2.38
2022-09-26T06:41:08.697Z,2.78
2022-09-26T06:43:35.669Z,2.58
2022-09-26T06:46:41.231Z,3.03
2022-09-26T06:49:13.259Z,2.95
2022-09-26T06:51:51.689Z,2.67
2022-09-26T06:54:18.937Z,2.75
2022-09-26T06:56:45.750Z,3.35
2022-09-26T06:59:13.084Z,3.03
2022-09-26T07:01:49.626Z,2.80
2022-09-26T07:07:25.921Z,2.60
2022-09-26T07:09:54.430Z,2.60
2022-09-26T07:12:47.167Z,2.70
2022-09-26T07:15:18.371Z,2.90
2022-09-26T07:17:48.038Z,3.00
2022-09-26T07:20:34.569Z,2.97
2022-09-26T07:23:11.534Z,3.38
2022-09-26T07:25:45.479Z,3.07
2022-09-26T07:28:12.666Z,3.38
2022-09-26T07:30:45.922Z,3.45
2022-09-26T07:33:26.482Z,3.45
2022-09-26T07:35:55.869Z,3.97
2022-09-26T07:38:22.960Z,3.38
2022-09-26T07:40:54.402Z,3.25
2022-09-26T07:43:30.818Z,3.97
2022-09-26T07:46:28.173Z,3.35
2022-09-26T07:49:14.925Z,3.70
2022-09-26T07:52:14.651Z,3.63
2022-09-26T07:54:49.912Z,3.85
2022-09-26T07:57:43.177Z,3.80
2022-09-26T08:00:36.286Z,3.78
2022-09-26T08:03:24.151Z,3.92
2022-09-26T08:05:53.221Z,4.22
2022-09-26T08:08:20.019Z,3.92
2022-09-26T08:11:03.722Z,4.40
2022-09-26T08:13:57.069Z,3.58
2022-09-26T08:16:44.303Z,4.15
2022-09-26T08:19:17.174Z,4.22
2022-09-26T08:21:45.166Z,4.15
2022-09-26T08:24:12.141Z,4.00
2022-09-26T08:26:48.274Z,4.82
2022-09-26T08:29:32.093Z,4.25
2022-09-26T08:32:03.140Z,4.88
2022-09-26T08:34:34.955Z,4.35
2022-09-26T08:37:21.102Z,4.72
2022-09-26T08:40:08.615Z,4.13
2022-09-26T08:43:33.577Z,4.05
2022-09-26T08:46:51.211Z,4.10
2022-09-26T08:49:30.904Z,4.55
2022-09-26T08:52:01.395Z,3.70
2022-09-26T08:54:39.860Z,4.03
2022-09-26T08:57:25.164Z,3.60
2022-09-26T08:59:54.516Z,3.58
2022-09-26T09:02:33.326Z,3.10
2022-09-26T09:05:35.263Z,3.45
2022-09-26T09:08:08.021Z,3.55
2022-09-26T09:10:50.183Z,3.08
2022-09-26T09:14:13.766Z,2.42
2022-09-26T09:17:10.943Z,1.92
2022-09-26T09:20:16.158Z,2.70
2022-09-26T09:23:22.170Z,2.63
2022-09-26T09:27:52.507Z,3.08
2022-09-26T09:29:10.414Z,2.75
2022-09-26T09:31:43.001Z,2.75
2022-09-26T09:34:30.039Z,2.90
2022-09-26T09:37:20.958Z,2.80
2022-09-26T09:40:00.655Z,2.50
2022-09-26T09:42:48.134Z,2.53
2022-09-26T09:45:47.482Z,2.53
2022-09-26T09:48:15.801Z,2.60
2022-09-26T09:50:58.322Z,2.40
2022-09-26T09:54:01.161Z,2.20
2022-09-26T09:56:59.196Z,2.70
2022-09-26T10:00:05.816Z,1.92
2022-09-26T10:02:50.884Z,2.20
2022-09-26T10:05:44.412Z,2.25
2022-09-26T10:08:22.605Z,1.77
2022-09-26T10:11:26.914Z,1.63
2022-09-26T10:14:03.228Z,1.38
2022-09-26T10:17:10.620Z,1.35
2022-09-26T10:19:45.712Z,2.00
2022-09-26T10:22:26.154Z,1.60
2022-09-26T10:25:02.732Z,1.65
2022-09-26T10:27:38.220Z,1.92
2022-09-26T10:30:17.239Z,2.00
2022-09-26T10:32:56.032Z,1.58
2022-09-26T10:35:45.615Z,1.02
2022-09-26T10:38:29.716Z,1.80
2022-09-26T10:41:05.058Z,1.92
2022-09-26T10:43:40.598Z,1.60
2022-09-26T10:46:27.632Z,1.27
2022-09-26T10:49:21.435Z,1.20
2022-09-26T10:52:27.341Z,1.40
2022-09-26T10:55:13.666Z,1.60
2022-09-26T10:57:53.838Z,1.52
2022-09-26T11:00:37.784Z,0.70
2022-09-26T11:03:19.618Z,0.95
2022-09-26T11:06:31.731Z,1.10
2022-09-26T11:09:20.709Z,1.10
2022-09-26T11:12:25.427Z,1.15
2022-09-26T11:14:58.922Z,1.25
2022-09-26T11:17:43.323Z,1.60
2022-09-26T11:20:33.332Z,1.48
2022-09-26T11:23:28.377Z,1.27
2022-09-26T11:26:18.836Z,1.83
2022-09-26T11:29:20.001Z,1.73
2022-09-26T11:32:17.250Z,1.95
2022-09-26T11:35:02.295Z,2.75
2022-09-26T11:38:03.492Z,1.85
2022-09-26T11:40:45.415Z,1.80
2022-09-26T11:43:31.969Z,1.95
2022-09-26T11:46:27.429Z,2.05
2022-09-26T11:49:30.712Z,1.85
2022-09-26T11:52:34.240Z,2.00
2022-09-26T11:55:31.074Z,2.20
2022-09-26T11:58:25.999Z,2.00
2022-09-26T12:01:38.232Z,2.17
2022-09-26T12:04:33.054Z,2.10
2022-09-26T12:07:10.249Z,1.80
2022-09-26T12:10:04.411Z,2.00
2022-09-26T12:12:50.104Z,2.20
2022-09-26T12:15:44.870Z,1.85
2022-09-26T12:18:20.222Z,2.88
2022-09-26T12:21:23.264Z,2.13
2022-09-26T12:24:06.259Z,2.67
2022-09-26T12:26:39.769Z,2.80
2022-09-26T12:29:28.582Z,3.17
2022-09-26T12:32:04.744Z,2.55
2022-09-26T12:34:56.217Z,3.47
2022-09-26T12:37:41.059Z,4.22
2022-09-26T12:40:10.937Z,4.60
2022-09-26T12:43:00.480Z,4.10
2022-09-26T12:45:42.166Z,3.42
2022-09-26T12:48:33.254Z,3.55
2022-09-26T12:51:22.640Z,3.72
2022-09-26T12:53:49.449Z,4.10
2022-09-26T12:56:35.106Z,4.20
2022-09-26T12:59:38.674Z,4.18
2022-09-26T13:02:08.909Z,4.47
2022-09-26T13:05:14.898Z,4.57
2022-09-26T13:08:15.579Z,4.57
2022-09-26T13:10:59.540Z,4.45
2022-09-26T13:14:17.633Z,4.53
2022-09-26T13:16:47.578Z,4.50
2022-09-26T13:19:26.469Z,4.25
2022-09-26T13:22:03.607Z,4.63
2022-09-26T13:24:48.419Z,4.50
2022-09-26T13:27:22.135Z,5.38
2022-09-26T13:29:58.519Z,4.97
2022-09-26T13:32:41.934Z,5.05
2022-09-26T13:35:36.760Z,4.68
2022-09-26T13:38:28.412Z,4.80
2022-09-26T13:41:42.950Z,5.03
2022-09-26T13:44:48.995Z,5.55
2022-09-26T13:47:24.743Z,4.23
2022-09-26T13:50:13.648Z,5.38
2022-09-26T13:52:52.584Z,5.03
2022-09-26T13:55:21.874Z,5.93
2022-09-26T13:57:50.471Z,4.70
2022-09-26T14:00:29.265Z,4.43
2022-09-26T14:03:15.578Z,5.70
2022-09-26T14:05:43.233Z,4.43
2022-09-26T14:08:43.826Z,4.50
2022-09-26T14:11:20.005Z,4.55
2022-09-26T14:13:48.412Z,5.00
2022-09-26T14:16:27.845Z,5.10
2022-09-26T14:19:00.693Z,5.05
2022-09-26T14:21:33.865Z,4.70
2022-09-26T14:24:36.414Z,4.60
2022-09-26T14:27:12.243Z,5.45
2022-09-26T14:29:39.080Z,4.60
2022-09-26T14:32:10.208Z,4.80
2022-09-26T14:35:23.946Z,4.78
2022-09-26T14:37:51.870Z,5.88
2022-09-26T14:40:29.839Z,4.80
2022-09-26T14:43:12.795Z,6.05
2022-09-26T14:45:39.872Z,5.85
2022-09-26T14:48:26.110Z,5.35
2022-09-26T14:50:56.370Z,5.75
2022-09-26T14:53:40.419Z,6.30
2022-09-26T14:56:27.164Z,5.65
2022-09-26T14:59:16.149Z,5.30
2022-09-26T15:01:44.588Z,4.93
2022-09-26T15:04:22.325Z,4.60
2022-09-26T15:06:54.270Z,5.32
2022-09-26T15:09:44.262Z,6.18
2022-09-26T15:12:21.638Z,5.10
2022-09-26T15:14:58.047Z,4.13
2022-09-26T15:17:32.782Z,5.15
2022-09-26T15:20:02.636Z,3.22
2022-09-26T15:22:31.045Z,3.20
2022-09-26T15:25:25.029Z,2.83
2022-09-26T15:27:56.150Z,2.50
2022-09-26T15:30:27.321Z,1.98
2022-09-26T15:32:58.120Z,2.97
2022-09-26T15:35:27.216Z,2.20
2022-09-26T15:38:12.957Z,2.17
2022-09-26T15:40:39.908Z,2.83
2022-09-26T15:43:13.004Z,2.15
2022-09-26T15:45:50.068Z,1.90
2022-09-26T15:48:20.247Z,2.10
2022-09-26T15:50:49.870Z,2.30
2022-09-26T15:53:42.556Z,2.08
2022-09-26T15:56:14.394Z,2.10
2022-09-26T15:58:53.845Z,2.60
2022-09-26T16:01:23.736Z,2.38
2022-09-26T16:03:55.328Z,2.75
2022-09-26T16:06:29.129Z,2.50
2022-09-26T16:09:25.384Z,2.60
2022-09-26T16:12:01.321Z,2.85
2022-09-26T16:14:41.241Z,2.10
2022-09-26T16:17:23.321Z,2.30
2022-09-26T16:19:53.939Z,2.83
2022-09-26T16:22:44.783Z,2.65
2022-09-26T16:25:18.228Z,1.88
2022-09-26T16:27:59.452Z,2.45
2022-09-26T16:30:29.942Z,2.97
2022-09-26T16:33:03.065Z,2.58
2022-09-26T16:35:33.465Z,2.17
2022-09-26T16:38:01.635Z,1.80
2022-09-26T16:40:31.036Z,2.45
2022-09-26T16:43:04.883Z,2.17
2022-09-26T16:45:32.620Z,2.58
2022-09-26T16:47:59.436Z,1.98
2022-09-26T16:50:34.168Z,2.70
2022-09-26T16:53:06.794Z,2.10
2022-09-26T16:55:37.680Z,2.47
2022-09-26T16:58:06.029Z,1.70
2022-09-26T17:00:53.910Z,2.40
2022-09-26T17:03:24.879Z,1.73
2022-09-26T17:05:53.623Z,1.75
2022-09-26T17:08:20.496Z,2.28
2022-09-26T17:10:47.799Z,2.78
2022-09-26T17:13:17.363Z,1.77
2022-09-26T17:15:47.416Z,1.80
2022-09-26T17:18:19.455Z,1.60
2022-09-26T17:20:46.886Z,1.33
2022-09-26T17:23:38.063Z,1.98
2022-09-26T17:26:01.925Z,1.77
2022-09-26T17:28:36.217Z,1.70
2022-09-26T17:31:07.584Z,1.63
2022-09-26T17:33:40.567Z,2.83
2022-09-26T17:36:10.929Z,1.92
2022-09-26T17:38:43.334Z,1.83
2022-09-26T17:41:12.653Z,2.20
2022-09-26T17:43:39.841Z,1.70
2022-09-26T17:46:15.111Z,2.20
2022-09-26T17:48:43.349Z,1.70
2022-09-26T17:51:14.525Z,1.70
2022-09-26T17:53:50.928Z,1.52
2022-09-26T17:56:19.288Z,1.98
2022-09-26T17:58:47.076Z,2.15
2022-09-26T18:01:34.183Z,2.40
2022-09-26T18:04:06.364Z,1.58
2022-09-26T18:06:34.046Z,2.08
2022-09-26T18:09:05.602Z,1.83
2022-09-26T18:11:34.499Z,2.30
2022-09-26T18:14:04.549Z,1.90
2022-09-26T18:16:31.466Z,2.05
2022-09-26T18:19:00.235Z,1.83
2022-09-26T18:21:30.252Z,2.72
2022-09-26T18:24:01.737Z,2.05
2022-09-26T18:26:30.407Z,2.17
2022-09-26T18:28:59.075Z,2.50
2022-09-26T18:31:31.279Z,2.15
2022-09-26T18:33:58.448Z,2.17
2022-09-26T18:36:26.212Z,2.42
2022-09-26T18:38:53.249Z,2.13
2022-09-26T18:41:26.876Z,2.50
2022-09-26T18:43:56.670Z,2.50
2022-09-26T18:46:23.778Z,2.78
2022-09-26T18:48:54.625Z,1.40
2022-09-26T18:51:21.531Z,1.70
2022-09-26T18:53:48.376Z,1.70
2022-09-26T18:56:33.817Z,3.10
2022-09-26T18:59:00.717Z,1.70
2022-09-26T19:01:38.367Z,2.10
2022-09-26T19:04:16.065Z,2.47
2022-09-26T19:06:45.649Z,3.47
2022-09-26T19:09:15.433Z,3.00
2022-09-26T19:11:43.350Z,2.25
2022-09-26T19:14:25.169Z,2.67
2022-09-26T19:16:53.019Z,2.22
2022-09-26T19:19:20.608Z,2.58
2022-09-26T19:21:57.522Z,1.83
2022-09-26T19:24:39.859Z,1.88
2022-09-26T19:27:18.681Z,1.77
2022-09-26T19:29:55.171Z,2.30
2022-09-26T19:32:26.978Z,1.98
2022-09-26T19:35:00.440Z,1.98
2022-09-26T19:37:27.479Z,2.22
2022-09-26T19:39:54.276Z,1.98
2022-09-26T19:42:21.161Z,1.90
2022-09-26T19:44:49.196Z,2.50
2022-09-26T19:47:22.619Z,2.50
2022-09-26T19:49:51.476Z,2.08
2022-09-26T19:52:20.293Z,2.20
2022-09-26T19:54:47.614Z,1.75
2022-09-26T19:57:22.603Z,1.85
2022-09-26T19:59:50.331Z,2.53
2022-09-26T20:02:22.969Z,2.03
2022-09-26T20:04:51.562Z,2.55
2022-09-26T20:07:19.779Z,1.85
2022-09-26T20:09:47.052Z,2.55
2022-09-26T20:12:14.386Z,2.47
2022-09-26T20:14:41.417Z,2.03
2022-09-26T20:17:25.518Z,1.48
2022-09-26T20:19:58.436Z,2.10
2022-09-26T20:22:26.353Z,2.40
2022-09-26T20:24:55.393Z,2.17
2022-09-26T20:27:28.774Z,2.42
2022-09-26T20:30:15.771Z,3.13
2022-09-26T20:32:42.898Z,2.75
2022-09-26T20:35:14.757Z,2.42
2022-09-26T20:37:42.665Z,3.05
2022-09-26T20:40:18.016Z,2.88
2022-09-26T20:45:20.427Z,2.03
2022-09-26T20:47:47.459Z,2.30
2022-09-26T20:50:17.737Z,2.20
2022-09-26T20:52:44.701Z,3.35
2022-09-26T20:55:19.783Z,2.38
2022-09-26T20:57:47.907Z,1.90
2022-09-26T21:00:20.678Z,3.15
2022-09-26T21:02:52.314Z,1.95
2022-09-26T21:05:24.434Z,2.20
2022-09-26T21:07:55.728Z,1.85
2022-09-26T21:10:22.570Z,2.20
2022-09-26T21:12:49.792Z,1.77
2022-09-26T21:15:17.410Z,2.20
2022-09-26T21:17:46.189Z,2.08
2022-09-26T21:20:23.587Z,1.90
2022-09-26T21:23:03.972Z,1.60
2022-09-26T21:25:32.027Z,1.80
2022-09-26T21:28:13.634Z,1.40
2022-09-26T21:30:40.581Z,2.28
2022-09-26T21:33:11.810Z,2.60
2022-09-26T21:35:38.824Z,1.55
2022-09-26T21:38:05.899Z,1.60
2022-09-26T21:40:37.903Z,1.25
2022-09-26T21:43:20.275Z,1.92
2022-09-26T21:45:47.141Z,1.70
2022-09-26T21:48:15.394Z,1.40
2022-09-26T21:50:48.213Z,1.40
2022-09-26T21:53:20.371Z,1.90
2022-09-26T21:55:54.748Z,1.73
2022-09-26T21:58:26.716Z,1.10
2022-09-26T22:00:53.768Z,1.65
2022-09-26T22:03:20.625Z,1.40
2022-09-26T22:05:47.540Z,1.50
2022-09-26T22:08:14.505Z,1.98
2022-09-26T22:10:41.562Z,1.90
2022-09-26T22:13:08.435Z,1.30
2022-09-26T22:15:35.328Z,1.35
2022-09-26T22:18:02.198Z,1.10
2022-09-26T22:20:29.080Z,1.48
2022-09-26T22:23:04.100Z,1.48
2022-09-26T22:25:31.401Z,1.60
2022-09-26T22:27:58.235Z,1.45
2022-09-26T22:30:25.234Z,1.27
2022-09-26T22:32:52.045Z,1.63
2022-09-26T22:35:18.943Z,1.38
2022-09-26T22:37:45.939Z,1.67
2022-09-26T22:40:12.882Z,1.48
2022-09-26T22:42:39.794Z,1.20
2022-09-26T22:45:07.140Z,1.00
2022-09-26T22:47:33.917Z,1.48
2022-09-26T22:50:03.082Z,1.60
2022-09-26T22:52:29.900Z,1.80
2022-09-26T22:54:57.283Z,1.30
2022-09-26T22:57:24.599Z,1.52
2022-09-26T22:59:51.576Z,1.40
2022-09-26T23:02:18.473Z,1.95
2022-09-26T23:04:48.170Z,1.20
2022-09-26T23:07:17.897Z,1.38
2022-09-26T23:09:45.404Z,1.80
2022-09-26T23:12:13.064Z,1.52
2022-09-26T23:14:39.973Z,1.73
2022-09-26T23:17:06.888Z,2.00
2022-09-26T23:19:41.872Z,2.15
2022-09-26T23:22:08.717Z,2.05
2022-09-26T23:24:35.822Z,1.70
2022-09-26T23:27:02.770Z,1.92
2022-09-26T23:29:29.625Z,1.65
2022-09-26T23:31:56.570Z,2.05
2022-09-26T23:34:23.549Z,1.73
2022-09-26T23:36:50.440Z,1.50
2022-09-26T23:39:17.369Z,1.33
2022-09-26T23:41:44.555Z,1.65
2022-09-26T23:44:11.403Z,1.90
2022-09-26T23:46:39.013Z,1.70
2022-09-26T23:49:06.046Z,1.90
2022-09-26T23:51:33.028Z,1.77
2022-09-26T23:54:00.140Z,1.60
2022-09-26T23:56:27.109Z,1.50
2022-09-26T23:58:56.498Z,1.80
